Time;durP1;ratioP1;P1;durP2;ratioP2;P2;SDS_P1;SDS_P2;PMS_P1;PMS_P2;Temp;Humidity;BMP_temperature;BMP_pressure;BME280_temperature;BME280_humidity;BME280_pressure;Samples;Min_cycle;Max_cycle;Signal;HPM_P1;HPM_P2
2020/12/11 00:00:23;;;;;;;56.95;24.00;;;;;;;2.30;76.74;100164.25;6246367;23;20020;-79
2020/12/11 00:02:49;;;;;;;52.00;20.77;;;;;;;2.33;76.72;100164.19;6245655;22;20070;-79
2020/12/11 00:05:16;;;;;;;62.05;25.02;;;;;;;2.35;76.70;100161.53;6244100;23;20020;-79
2020/12/11 00:07:45;;;;;;;53.08;21.90;;;;;;;2.37;76.67;100157.13;6244138;23;20020;-79
2020/12/11 00:10:13;;;;;;;67.05;25.75;;;;;;;2.38;76.64;100145.78;6219634;23;20013;-79
2020/12/11 00:12:39;;;;;;;49.90;21.67;;;;;;;2.40;76.60;100138.78;6218770;23;20043;-78
2020/12/11 00:15:07;;;;;;;60.88;23.42;;;;;;;2.42;76.46;100137.00;6219215;23;20036;-79
2020/12/11 00:17:33;;;;;;;56.63;23.35;;;;;;;2.43;76.44;100123.03;6219123;23;20353;-79
2020/12/11 00:19:59;;;;;;;55.58;25.30;;;;;;;2.45;76.51;100109.91;6245995;23;20341;-79
2020/12/11 00:22:25;;;;;;;53.90;23.30;;;;;;;2.46;76.47;100104.66;6218865;23;20047;-79
2020/12/11 00:24:52;;;;;;;58.58;24.88;;;;;;;2.47;76.41;100098.53;6193949;23;20023;-79
2020/12/11 00:27:19;;;;;;;59.78;23.80;;;;;;;2.50;76.69;100098.44;6218244;23;20111;-79
2020/12/11 00:29:45;;;;;;;61.80;25.40;;;;;;;2.51;76.71;100094.97;6244810;23;20019;-79
2020/12/11 00:32:12;;;;;;;66.55;25.45;;;;;;;2.52;76.55;100091.47;6245496;23;20022;-79
2020/12/11 00:34:38;;;;;;;68.30;24.88;;;;;;;2.53;76.56;100098.41;6245963;23;20051;-79
2020/12/11 00:37:05;;;;;;;61.50;23.77;;;;;;;2.56;76.45;100099.22;6245632;23;20066;-79
2020/12/11 00:39:31;;;;;;;64.80;25.73;;;;;;;2.56;76.54;100112.28;6246046;23;20027;-80
2020/12/11 00:41:58;;;;;;;59.35;25.33;;;;;;;2.56;76.54;100101.81;6219706;23;20039;-79
2020/12/11 00:44:24;;;;;;;73.55;26.73;;;;;;;2.56;76.58;100096.59;6247003;23;20020;-79
2020/12/11 00:46:50;;;;;;;63.08;26.48;;;;;;;2.58;76.61;100102.66;6247022;23;20020;-79
2020/12/11 00:49:16;;;;;;;58.97;25.90;;;;;;;2.59;76.66;100096.53;6219921;23;20477;-79
2020/12/11 00:51:43;;;;;;;53.33;23.40;;;;;;;2.60;76.73;100082.56;6220469;23;20491;-79
2020/12/11 00:54:09;;;;;;;56.80;23.50;;;;;;;2.61;76.68;100081.66;6248193;23;20027;-80
2020/12/11 00:56:35;;;;;;;59.33;26.63;;;;;;;2.63;76.77;100082.50;6222593;23;20019;-80
2020/12/11 00:59:01;;;;;;;66.47;25.25;;;;;;;2.64;76.54;100079.00;6220718;23;20053;-79
2020/12/11 01:01:27;;;;;;;54.28;25.08;;;;;;;2.64;76.87;100079.00;6220263;23;20358;-79
2020/12/11 01:03:53;;;;;;;53.30;24.42;;;;;;;2.66;76.69;100071.97;6219682;23;20099;-79
2020/12/11 01:06:20;;;;;;;45.72;21.50;;;;;;;2.66;76.68;100066.75;6193807;23;20024;-79
2020/12/11 01:08:46;;;;;;;54.47;24.55;;;;;;;2.66;76.61;100071.97;6229385;23;20518;-79
2020/12/11 01:11:12;;;;;;;59.03;24.63;;;;;;;2.65;76.59;100071.09;6244745;23;20047;-80
2020/12/11 01:13:38;;;;;;;59.42;25.15;;;;;;;2.63;76.64;100066.81;6245217;23;20020;-79
2020/12/11 01:16:06;;;;;;;60.15;24.27;;;;;;;2.61;76.64;100068.59;6246603;22;20488;-80
2020/12/11 01:18:32;;;;;;;50.55;23.48;;;;;;;2.61;76.84;100066.00;6245838;22;20023;-79
2020/12/11 01:20:58;;;;;;;54.10;25.63;;;;;;;2.61;76.77;100058.16;6244181;23;20358;-79
2020/12/11 01:23:24;;;;;;;60.10;24.67;;;;;;;2.62;76.79;100049.38;6244863;23;20438;-79
2020/12/11 01:25:51;;;;;;;57.95;24.83;;;;;;;2.62;76.70;100038.94;6245228;22;20035;-80
2020/12/11 01:28:18;;;;;;;57.95;25.25;;;;;;;2.61;76.85;100043.31;6244828;23;20023;-79
2020/12/11 01:30:44;;;;;;;64.30;24.63;;;;;;;2.60;76.75;100040.72;6219407;23;20023;-80
2020/12/11 01:33:10;;;;;;;56.85;24.08;;;;;;;2.60;76.86;100040.72;6244863;23;20023;-80
2020/12/11 01:35:36;;;;;;;61.67;23.65;;;;;;;2.60;76.97;100025.94;6245441;23;20472;-80
2020/12/11 01:38:02;;;;;;;54.88;25.65;;;;;;;2.61;76.76;100021.53;6245518;22;20047;-80
2020/12/11 01:40:36;;;;;;;51.72;22.02;;;;;;;2.61;76.76;100013.72;6247607;22;20016;-80
2020/12/11 01:43:03;;;;;;;57.42;24.60;;;;;;;2.60;76.75;100004.13;6245181;23;20331;-79
2020/12/11 01:45:28;;;;;;;57.15;23.30;;;;;;;2.57;76.79;99989.41;6246484;22;20082;-80
2020/12/11 01:47:55;;;;;;;46.75;19.23;;;;;;;2.57;76.53;99980.72;6246615;22;20099;-79
2020/12/11 01:50:21;;;;;;;58.13;22.95;;;;;;;2.53;76.38;99978.16;6245450;23;20101;-79
2020/12/11 01:52:48;;;;;;;59.65;25.35;;;;;;;2.50;76.53;99965.16;6244196;23;20222;-80
2020/12/11 01:55:14;;;;;;;55.55;22.95;;;;;;;2.48;76.73;99969.56;6244654;23;20024;-79
2020/12/11 01:57:52;;;;;;;33.75;15.18;;;;;;;2.45;76.68;99953.13;6245639;22;20024;-79
2020/12/11 02:00:20;;;;;;;61.00;23.25;;;;;;;2.44;76.54;99957.50;6245281;23;20016;-79
2020/12/11 02:02:47;;;;;;;57.35;24.08;;;;;;;2.38;76.69;99957.66;6246500;22;20062;-80
2020/12/11 02:05:14;;;;;;;49.80;20.45;;;;;;;2.33;76.44;99936.00;6246125;22;20026;-79
2020/12/11 02:07:41;;;;;;;61.15;23.35;;;;;;;2.29;76.43;99931.75;6245339;22;20019;-80
2020/12/11 02:10:08;;;;;;;46.15;19.42;;;;;;;2.27;76.53;99928.34;6219055;23;20103;-80
2020/12/11 02:12:35;;;;;;;60.45;22.20;;;;;;;2.24;76.47;99923.19;6246149;23;20016;-79
2020/12/11 02:15:01;;;;;;;59.83;23.70;;;;;;;2.21;76.52;99918.06;6246383;23;20024;-80
2020/12/11 02:17:27;;;;;;;66.22;25.55;;;;;;;2.17;76.30;99916.38;6218937;23;20430;-79
2020/12/11 02:19:54;;;;;;;63.75;26.35;;;;;;;2.12;76.17;99919.97;6244595;23;20346;-79
2020/12/11 02:22:20;;;;;;;56.95;23.58;;;;;;;2.10;76.62;99911.31;6247890;23;20023;-80
2020/12/11 02:24:49;;;;;;;53.65;23.77;;;;;;;2.10;76.60;99918.31;6232387;23;20023;-80
2020/12/11 02:27:16;;;;;;;66.25;24.40;;;;;;;2.07;76.55;99915.78;6229736;23;20458;-79
2020/12/11 02:29:42;;;;;;;62.72;25.08;;;;;;;2.02;76.31;99918.50;6245605;23;20020;-80
2020/12/11 02:32:09;;;;;;;61.78;24.52;;;;;;;1.99;76.38;99918.56;6246128;23;20090;-80
2020/12/11 02:34:35;;;;;;;58.38;25.98;;;;;;;1.98;76.58;99918.59;6218361;23;20022;-79
2020/12/11 02:37:02;;;;;;;55.90;23.27;;;;;;;1.97;76.53;99915.16;6246323;23;20035;-79
2020/12/11 02:39:28;;;;;;;57.22;23.80;;;;;;;1.96;76.50;99923.91;6220029;23;20016;-79
2020/12/11 02:41:54;;;;;;;44.55;17.45;;;;;;;1.96;76.39;99918.66;6219276;23;20446;-80
2020/12/11 02:44:20;;;;;;;49.38;22.58;;;;;;;1.96;76.62;99918.66;6244224;23;20047;-79
2020/12/11 02:46:47;;;;;;;58.33;24.95;;;;;;;1.94;76.37;99910.00;6193955;23;20016;-79
2020/12/11 02:49:14;;;;;;;58.78;25.27;;;;;;;1.92;76.28;99911.78;6247435;23;20453;-79
2020/12/11 02:51:40;;;;;;;53.28;21.52;;;;;;;1.89;76.45;99911.88;6218237;23;20369;-80
2020/12/11 02:54:06;;;;;;;59.67;24.17;;;;;;;1.86;76.16;99917.16;6220667;23;20020;-79
2020/12/11 02:56:32;;;;;;;54.60;23.73;;;;;;;1.81;76.24;99909.47;6194040;23;20020;-79
2020/12/11 02:58:58;;;;;;;61.60;23.73;;;;;;;1.79;76.00;99910.38;6225486;23;20024;-80
2020/12/11 03:01:27;;;;;;;57.42;22.92;;;;;;;1.77;76.28;99909.56;6248738;23;20030;-79
2020/12/11 03:03:58;;;;;;;52.55;21.63;;;;;;;1.77;76.53;99892.13;6220886;23;20016;-80
2020/12/11 03:06:28;;;;;;;44.22;18.35;;;;;;;1.77;76.49;99892.13;6248199;23;20095;-79
2020/12/11 03:08:55;;;;;;;50.33;24.83;;;;;;;1.80;76.81;99893.81;6248325;23;20012;-79
2020/12/11 03:11:22;;;;;;;62.80;23.58;;;;;;;1.80;76.34;99893.81;6221249;23;20020;-80
2020/12/11 03:13:48;;;;;;;58.72;22.48;;;;;;;1.75;76.14;99893.91;6248207;23;20034;-80
2020/12/11 03:16:16;;;;;;;55.47;22.30;;;;;;;1.72;76.05;99894.88;6221667;23;20039;-79
2020/12/11 03:18:43;;;;;;;53.90;23.80;;;;;;;1.70;76.31;99887.97;6248085;23;20937;-80
2020/12/11 03:21:10;;;;;;;55.38;21.77;;;;;;;1.68;76.06;99893.22;6221302;23;20024;-79
2020/12/11 03:23:36;;;;;;;53.35;23.88;;;;;;;1.66;76.31;99884.59;6248064;23;20027;-80
2020/12/11 03:26:03;;;;;;;45.97;19.95;;;;;;;1.67;76.65;99870.63;6247165;23;20016;-79
2020/12/11 03:28:30;;;;;;;52.10;21.05;;;;;;;1.68;76.54;99856.69;6195473;23;20016;-79
2020/12/11 03:30:57;;;;;;;36.17;14.95;;;;;;;1.69;76.63;99853.16;6195033;23;20106;-80
2020/12/11 03:33:23;;;;;;;57.03;22.92;;;;;;;1.73;76.90;99857.44;6221561;23;20020;-79
2020/12/11 03:35:49;;;;;;;49.78;22.38;;;;;;;1.75;76.58;99858.25;6246643;23;20020;-80
2020/12/11 03:38:15;;;;;;;57.58;24.20;;;;;;;1.77;76.43;99854.72;6247837;23;20039;-79
2020/12/11 03:40:41;;;;;;;46.05;22.92;;;;;;;1.73;76.46;99849.59;6220542;23;20012;-79
2020/12/11 03:43:07;;;;;;;50.97;22.05;;;;;;;1.73;76.37;99849.59;6220652;23;20079;-79
2020/12/11 03:45:33;;;;;;;58.50;22.73;;;;;;;1.72;76.09;99842.66;6247065;23;20055;-80
2020/12/11 03:47:59;;;;;;;57.45;22.67;;;;;;;1.69;76.03;99837.50;6220436;23;20058;-79
2020/12/11 03:50:25;;;;;;;53.03;22.63;;;;;;;1.66;76.18;99832.38;6220722;23;20012;-79
2020/12/11 03:52:51;;;;;;;54.72;22.77;;;;;;;1.65;76.23;99820.22;6244061;23;20019;-79
2020/12/11 03:55:17;;;;;;;52.45;22.70;;;;;;;1.65;76.34;99820.22;6220094;23;20016;-79
2020/12/11 03:57:43;;;;;;;54.90;23.30;;;;;;;1.66;76.47;99816.72;6219368;23;20016;-79
2020/12/11 04:00:09;;;;;;;47.25;20.90;;;;;;;1.68;76.33;99807.09;6247109;23;20020;-79
2020/12/11 04:02:36;;;;;;;47.85;20.80;;;;;;;1.68;76.39;99809.72;6195178;23;20043;-80
2020/12/11 04:05:04;;;;;;;52.08;26.10;;;;;;;1.71;76.29;99806.16;6247045;23;20020;-79
2020/12/11 04:07:30;;;;;;;48.53;21.77;;;;;;;1.72;76.37;99793.06;6220545;23;20070;-79
2020/12/11 04:09:56;;;;;;;46.33;23.65;;;;;;;1.72;76.69;99795.69;6219771;23;20009;-77
2020/12/11 04:12:22;;;;;;;45.60;21.05;;;;;;;1.77;76.71;99786.88;6216600;23;20021;-78
2020/12/11 04:14:48;;;;;;;45.10;18.10;;;;;;;1.81;76.93;99786.75;6213247;23;20075;-77
2020/12/11 04:17:14;;;;;;;52.42;22.55;;;;;;;1.87;76.73;99788.34;6213327;23;20031;-78
2020/12/11 04:19:41;;;;;;;40.75;17.98;;;;;;;1.88;76.92;99775.22;6200086;23;20027;-77
2020/12/11 04:22:07;;;;;;;53.78;22.67;;;;;;;1.91;76.70;99774.31;6224792;23;20462;-78
2020/12/11 04:24:33;;;;;;;55.50;22.45;;;;;;;1.92;76.83;99770.78;6214478;23;20020;-78
2020/12/11 04:26:59;;;;;;;46.97;19.60;;;;;;;1.93;76.84;99772.53;6213959;23;20021;-78
2020/12/11 04:29:25;;;;;;;44.63;22.92;;;;;;;1.97;76.74;99761.09;6214278;23;20019;-78
2020/12/11 04:31:55;;;;;;;50.13;22.45;;;;;;;2.00;77.08;99747.97;6212740;23;20071;-77
2020/12/11 04:34:22;;;;;;;51.63;22.05;;;;;;;2.04;76.88;99744.34;6214894;23;20128;-78
2020/12/11 04:36:50;;;;;;;57.58;25.25;;;;;;;2.06;76.75;99742.56;6212538;23;20048;-77
2020/12/11 04:39:16;;;;;;;46.72;21.13;;;;;;;2.05;76.58;99730.38;6213134;23;20039;-78
2020/12/11 04:41:44;;;;;;;49.03;22.50;;;;;;;2.06;76.67;99723.44;6212822;23;20450;-77
2020/12/11 04:44:10;;;;;;;52.08;21.55;;;;;;;2.06;76.47;99706.00;6212639;23;20071;-77
2020/12/11 04:46:38;;;;;;;53.17;22.98;;;;;;;2.05;76.45;99709.50;6214008;23;20016;-78
2020/12/11 04:49:06;;;;;;;51.17;23.60;;;;;;;2.03;76.41;99711.28;6212736;23;20017;-77
2020/12/11 04:51:33;;;;;;;39.38;17.67;;;;;;;2.04;76.50;99707.81;6214148;23;20020;-78
2020/12/11 04:54:00;;;;;;;49.33;21.63;;;;;;;2.08;77.22;99693.75;6212783;23;20358;-77
2020/12/11 04:56:27;;;;;;;52.30;22.55;;;;;;;2.23;77.63;99687.22;6187377;23;20390;-77
2020/12/11 04:58:55;;;;;;;47.35;23.40;;;;;;;2.36;77.56;99677.28;6212602;23;20023;-78
2020/12/11 05:01:34;;;;;;;48.70;21.58;;;;;;;2.51;77.54;99666.34;6212750;23;20020;-77
2020/12/11 05:04:01;;;;;;;52.78;22.33;;;;;;;2.64;77.30;99661.59;6188142;23;20024;-78
2020/12/11 05:06:27;;;;;;;53.00;26.15;;;;;;;2.75;77.26;99666.50;6213632;23;20096;-78
2020/12/11 05:09:14;;;;;;;50.92;24.27;;;;;;;2.85;77.15;99648.75;6219264;22;20351;-78
2020/12/11 05:11:41;;;;;;;52.97;25.67;;;;;;;2.93;77.21;99642.34;6274673;22;20023;-78
2020/12/11 05:14:24;;;;;;;52.35;23.23;;;;;;;3.01;77.31;99638.63;6275339;22;20023;-77
2020/12/11 05:16:55;;;;;;;56.42;24.17;;;;;;;3.08;77.44;99624.44;6247231;22;20016;-77
2020/12/11 05:19:21;;;;;;;56.60;24.02;;;;;;;3.13;77.50;99622.53;6274985;22;20012;-77
2020/12/11 05:21:47;;;;;;;53.20;22.90;;;;;;;3.18;77.37;99610.13;6274529;22;20066;-77
2020/12/11 05:24:14;;;;;;;45.08;19.75;;;;;;;3.23;77.19;99608.19;6248565;22;20030;-78
2020/12/11 05:26:40;;;;;;;44.03;21.83;;;;;;;3.28;77.24;99603.66;6247242;22;20106;-78
2020/12/11 05:29:06;;;;;;;52.13;24.67;;;;;;;3.33;77.28;99602.66;6275020;22;20019;-78
2020/12/11 05:31:32;;;;;;;45.10;19.38;;;;;;;3.38;77.58;99600.72;6273078;22;20020;-78
2020/12/11 05:34:05;;;;;;;48.22;18.05;;;;;;;3.42;77.46;99597.09;6274891;22;20015;-78
2020/12/11 05:36:44;;;;;;;48.92;22.92;;;;;;;3.45;77.37;99592.59;6247576;22;20418;-77
2020/12/11 05:39:10;;;;;;;53.53;22.17;;;;;;;3.49;77.05;99582.88;6247982;22;20012;-78
2020/12/11 05:41:37;;;;;;;64.90;23.83;;;;;;;3.53;77.37;99579.22;6274690;22;20464;-77
2020/12/11 05:44:22;;;;;;;39.28;17.63;;;;;;;3.56;77.30;99573.91;6274843;22;20019;-77
2020/12/11 05:46:48;;;;;;;57.67;23.20;;;;;;;3.59;77.41;99568.53;6274045;22;20019;-77
2020/12/11 05:49:23;;;;;;;60.45;24.95;;;;;;;3.61;77.45;99558.84;6275634;22;20019;-77
2020/12/11 05:51:55;;;;;;;57.85;24.42;;;;;;;3.61;77.08;99551.00;6276964;22;20457;-77
2020/12/11 05:54:23;;;;;;;54.13;23.42;;;;;;;3.58;76.75;99535.44;6268496;22;20110;-77
2020/12/11 05:56:51;;;;;;;36.95;16.83;;;;;;;3.50;76.32;99532.22;6288144;22;20066;-77
2020/12/11 05:59:20;;;;;;;46.20;21.45;;;;;;;3.42;76.54;99539.50;6277123;22;20019;-77
2020/12/11 06:01:55;;;;;;;51.97;21.15;;;;;;;3.33;76.44;99550.31;6275021;22;20012;-78
2020/12/11 06:04:21;;;;;;;50.20;23.95;;;;;;;3.27;76.75;99547.00;6275065;22;20449;-77
2020/12/11 06:06:55;;;;;;;53.00;24.52;;;;;;;3.23;76.90;99542.78;6275373;22;20015;-78
2020/12/11 06:09:44;;;;;;;48.67;20.85;;;;;;;3.18;76.77;99531.63;6222361;22;20055;-77
2020/12/11 06:12:12;;;;;;;55.92;22.58;;;;;;;3.14;76.89;99532.66;6274539;22;20525;-77
2020/12/11 06:15:15;;;;;;;52.75;22.92;;;;;;;3.09;77.03;99526.75;6274837;22;20069;-77
2020/12/11 06:17:58;;;;;;;64.90;24.08;;;;;;;3.00;76.46;99521.84;6247450;22;20047;-77
2020/12/11 06:20:26;;;;;;;60.35;24.00;;;;;;;2.90;76.43;99516.94;6274783;22;20015;-77
2020/12/11 06:22:52;;;;;;;52.05;23.52;;;;;;;2.85;76.78;99512.78;6274461;22;20016;-77
2020/12/11 06:25:31;;;;;;;58.58;23.35;;;;;;;2.82;76.82;99518.94;6247635;22;20123;-77
2020/12/11 06:27:59;;;;;;;56.15;23.13;;;;;;;2.79;77.14;99507.72;6247596;22;20020;-78
2020/12/11 06:30:31;;;;;;;58.13;22.58;;;;;;;2.77;76.94;99515.66;6249824;22;20016;-78
2020/12/11 06:32:59;;;;;;;52.17;23.08;;;;;;;2.74;76.99;99520.97;6224665;22;20028;-78
2020/12/11 06:35:27;;;;;;;66.18;25.15;;;;;;;2.71;76.71;99505.38;6250050;22;20095;-78
2020/12/11 06:37:54;;;;;;;58.03;22.88;;;;;;;2.67;76.81;99504.63;6277168;22;20020;-78
2020/12/11 06:40:49;;;;;;;51.95;21.90;;;;;;;2.67;77.30;99506.41;6250399;22;20065;-78
2020/12/11 06:43:36;;;;;;;67.38;23.50;;;;;;;2.65;77.17;99505.59;6237656;22;20030;-78
2020/12/11 06:46:11;;;;;;;;;;;;;;;2.65;77.34;99505.59;6259398;22;20507;-78
2020/12/11 06:49:13;;;;;;;64.38;23.83;;;;;;;2.63;77.46;99507.41;6288125;22;19945;-78
2020/12/11 06:51:45;;;;;;;52.78;22.17;;;;;;;2.65;77.89;99505.59;6226731;22;20119;-78
2020/12/11 06:54:31;;;;;;;46.00;20.20;;;;;;;2.73;78.58;99499.22;6249985;22;20054;-78
2020/12/11 06:56:59;;;;;;;56.80;23.20;;;;;;;2.84;78.82;99501.44;6233676;22;20357;-78
2020/12/11 06:59:25;;;;;;;48.00;20.45;;;;;;;2.98;78.92;99487.06;6223970;22;20015;-78
2020/12/11 07:01:52;;;;;;;56.00;24.83;;;;;;;3.11;79.13;99489.16;6249590;22;20043;-78
2020/12/11 07:04:20;;;;;;;51.38;21.92;;;;;;;3.25;79.02;99475.56;6249605;22;20352;-78
2020/12/11 07:06:50;;;;;;;57.17;23.60;;;;;;;3.36;78.63;99477.78;6276583;22;20026;-77
2020/12/11 07:09:17;;;;;;;51.28;23.73;;;;;;;3.45;78.22;99476.59;6249865;22;20039;-77
2020/12/11 07:11:43;;;;;;;56.95;23.88;;;;;;;3.51;78.13;99478.97;6276264;22;20027;-78
2020/12/11 07:14:10;;;;;;;48.70;23.25;;;;;;;3.58;78.22;99467.38;6249795;22;20102;-78
2020/12/11 07:16:40;;;;;;;47.85;23.45;;;;;;;3.65;78.29;99468.81;6224235;22;20030;-78
2020/12/11 07:19:07;;;;;;;45.28;21.48;;;;;;;3.71;77.92;99472.94;6249654;22;20020;-78
2020/12/11 07:21:34;;;;;;;49.17;23.00;;;;;;;3.74;78.06;99472.00;6249806;22;20504;-78
2020/12/11 07:24:01;;;;;;;47.80;21.45;;;;;;;3.78;77.90;99457.88;6249401;22;20027;-78
2020/12/11 07:26:27;;;;;;;49.70;23.15;;;;;;;3.80;77.74;99461.28;6285998;22;19999;-77
2020/12/11 07:29:09;;;;;;;53.28;22.48;;;;;;;3.84;77.80;99465.47;6295804;22;20042;-77
2020/12/11 07:31:39;;;;;;;50.35;22.50;;;;;;;3.88;77.96;99459.19;6278592;22;20460;-77
2020/12/11 07:34:17;;;;;;;49.08;24.15;;;;;;;3.92;77.54;99455.56;6249194;22;20473;-78
2020/12/11 07:36:47;;;;;;;39.08;18.45;;;;;;;3.95;77.48;99455.41;6276636;22;20069;-78
2020/12/11 07:39:15;;;;;;;43.33;21.45;;;;;;;3.99;77.91;99467.47;6276538;22;20349;-78
2020/12/11 07:41:45;;;;;;;41.90;18.33;;;;;;;4.03;77.63;99453.38;6224408;22;20023;-79
2020/12/11 07:44:21;;;;;;;47.05;21.52;;;;;;;4.10;77.55;99454.78;6277475;22;20348;-78
2020/12/11 07:46:47;;;;;;;39.28;19.80;;;;;;;4.13;77.86;99450.38;6277616;22;20023;-78
2020/12/11 07:49:13;;;;;;;41.13;20.02;;;;;;;4.17;77.86;99444.09;6252432;22;20054;-78
2020/12/11 07:51:49;;;;;;;38.22;18.25;;;;;;;4.21;77.74;99441.25;6280509;22;20023;-78
2020/12/11 07:54:17;;;;;;;50.55;21.95;;;;;;;4.27;77.78;99445.38;6252136;22;20352;-78
2020/12/11 07:56:43;;;;;;;51.88;21.98;;;;;;;4.30;77.67;99440.03;6278864;22;20026;-78
2020/12/11 07:59:13;;;;;;;42.83;20.17;;;;;;;4.33;77.43;99434.63;6277643;22;20020;-78
2020/12/11 08:01:42;;;;;;;50.70;23.70;;;;;;;4.39;77.59;99438.78;6276549;22;20039;-78
2020/12/11 08:04:08;;;;;;;49.85;23.55;;;;;;;4.42;77.39;99429.00;6277387;22;20020;-77
2020/12/11 08:06:34;;;;;;;45.30;20.73;;;;;;;4.45;77.55;99428.91;6250731;22;20020;-78
2020/12/11 08:09:20;;;;;;;43.70;21.60;;;;;;;4.49;77.55;99430.47;6277695;22;20480;-78
2020/12/11 08:11:47;;;;;;;40.78;19.88;;;;;;;4.53;77.65;99435.59;6276789;22;20016;-78
2020/12/11 08:14:13;;;;;;;49.05;23.25;;;;;;;4.54;77.74;99422.41;6276816;22;20030;-78
2020/12/11 08:16:39;;;;;;;47.92;23.52;;;;;;;4.58;77.51;99423.13;6249280;22;20015;-78
2020/12/11 08:19:09;;;;;;;40.97;19.88;;;;;;;4.61;77.33;99409.88;6277308;22;20086;-78
2020/12/11 08:21:35;;;;;;;43.80;20.00;;;;;;;4.64;77.57;99412.38;6276691;22;20024;-77
2020/12/11 08:24:01;;;;;;;39.53;19.73;;;;;;;4.66;77.63;99411.38;6249526;22;20330;-78
2020/12/11 08:26:36;;;;;;;49.78;23.80;;;;;;;4.68;76.88;99408.69;6224003;22;20023;-78
2020/12/11 08:29:07;;;;;;;47.90;22.95;;;;;;;4.68;76.83;99408.69;6249951;22;20457;-78
2020/12/11 08:31:43;;;;;;;48.88;21.98;;;;;;;4.70;77.06;99401.59;6245825;22;20043;-78
2020/12/11 08:34:12;;;;;;;49.17;21.98;;;;;;;4.72;77.10;99405.00;6250146;22;20031;-78
2020/12/11 08:36:45;;;;;;;47.50;21.35;;;;;;;4.74;77.37;99408.41;6250887;22;20020;-79
2020/12/11 08:39:12;;;;;;;46.78;21.88;;;;;;;4.80;77.04;99408.16;6251396;22;20019;-79
2020/12/11 08:41:44;;;;;;;47.33;22.45;;;;;;;4.83;77.00;99402.75;6250376;22;20023;-80
2020/12/11 08:44:16;;;;;;;50.17;21.95;;;;;;;4.86;77.17;99394.78;6277206;22;20086;-78
2020/12/11 08:47:18;;;;;;;51.92;23.80;;;;;;;4.92;77.01;99390.19;6249165;22;20023;-78
2020/12/11 08:49:46;;;;;;;44.78;22.33;;;;;;;4.95;77.26;99390.84;6249522;22;20016;-79
2020/12/11 08:52:13;;;;;;;45.05;21.42;;;;;;;5.00;77.09;99377.56;6245420;22;20089;-78
2020/12/11 08:54:40;;;;;;;44.28;22.42;;;;;;;5.03;77.09;99387.91;6248935;22;20369;-78
2020/12/11 08:57:06;;;;;;;45.95;22.23;;;;;;;5.07;77.18;99384.22;6273281;22;20027;-77
2020/12/11 08:59:33;;;;;;;49.03;22.60;;;;;;;5.10;77.14;99384.06;6274569;22;20322;-78
2020/12/11 09:02:03;;;;;;;45.47;22.33;;;;;;;5.17;77.12;99380.25;6278789;22;20016;-78
2020/12/11 09:04:29;;;;;;;39.80;19.02;;;;;;;5.23;77.02;99385.19;6269871;22;20019;-77
2020/12/11 09:06:56;;;;;;;40.17;20.70;;;;;;;5.26;76.76;99385.06;6280917;22;20129;-77
2020/12/11 09:09:22;;;;;;;39.42;20.95;;;;;;;5.29;77.19;99388.47;6251784;22;20020;-77
2020/12/11 09:11:48;;;;;;;51.47;23.30;;;;;;;5.32;77.09;99389.16;6248133;22;20366;-78
2020/12/11 09:14:15;;;;;;;44.38;25.13;;;;;;;5.37;77.05;99386.31;6275391;22;20077;-78
2020/12/11 09:16:41;;;;;;;46.33;22.52;;;;;;;5.40;77.00;99384.41;6274424;22;20023;-77
2020/12/11 09:19:08;;;;;;;46.35;23.23;;;;;;;5.45;76.90;99378.94;6248116;22;20361;-77
2020/12/11 09:21:34;;;;;;;46.47;23.73;;;;;;;5.52;77.07;99375.13;6247498;22;20480;-78
2020/12/11 09:24:00;;;;;;;42.92;21.67;;;;;;;5.58;76.98;99369.56;6248136;22;20019;-78
2020/12/11 09:26:28;;;;;;;44.30;21.65;;;;;;;5.65;76.68;99365.72;6274524;22;20027;-77
2020/12/11 09:29:39;;;;;;;46.38;21.77;;;;;;;5.75;76.98;99360.00;6247816;22;20459;-79
2020/12/11 09:31:46;;;;;;;40.97;22.00;;;;;;;5.86;76.72;99352.44;6262034;22;20023;-77
2020/12/11 09:34:13;;;;;;;34.65;19.27;;;;;;;5.91;76.34;99357.47;6275410;22;20125;-78
2020/12/11 09:36:42;;;;;;;43.88;21.33;;;;;;;5.93;76.15;99352.97;6247435;22;20051;-78
2020/12/11 09:39:09;;;;;;;43.53;21.60;;;;;;;5.99;75.99;99355.31;6222218;22;20023;-78
2020/12/11 09:41:37;;;;;;;39.22;20.00;;;;;;;6.03;76.24;99349.84;6275422;22;20091;-78
2020/12/11 09:47:33;;;;;;;35.17;21.80;;;;;;;6.12;76.02;99347.69;6257689;22;20034;-79
2020/12/11 09:49:23;;;;;;;43.88;21.45;;;;;;;6.12;75.87;99342.41;6264581;22;20020;-78
2020/12/11 09:54:36;;;;;;;36.97;21.05;;;;;;;6.11;76.06;99341.59;6274682;22;20019;-78
2020/12/11 09:57:02;;;;;;;38.83;19.55;;;;;;;6.13;76.18;99344.97;6248142;22;20022;-79
2020/12/11 10:04:57;;;;;;;32.97;18.63;;;;;;;6.28;76.16;99338.09;6274889;22;20250;-79
2020/12/11 10:07:23;;;;;;;38.55;21.05;;;;;;;6.31;76.28;99327.44;6248035;22;20046;-79
2020/12/11 10:09:49;;;;;;;39.75;20.88;;;;;;;6.36;76.01;99319.28;6244469;22;20000;-80
2020/12/11 10:12:18;;;;;;;41.60;21.92;;;;;;;6.40;75.88;99321.69;6245956;23;20030;-80
2020/12/11 10:14:48;;;;;;;36.05;19.90;;;;;;;6.50;75.75;99326.44;6216562;23;20051;-80
2020/12/11 10:17:15;;;;;;;38.72;20.98;;;;;;;6.58;76.13;99333.00;6218720;23;20023;-80
2020/12/11 10:19:41;;;;;;;35.95;20.52;;;;;;;6.67;76.20;99329.03;6218742;23;20061;-80
2020/12/11 10:22:07;;;;;;;35.22;20.33;;;;;;;6.72;75.76;99321.72;6219152;23;20016;-80
2020/12/11 10:24:33;;;;;;;35.88;18.35;;;;;;;6.75;76.18;99318.94;6219161;23;20103;-79
2020/12/11 10:26:59;;;;;;;38.10;21.52;;;;;;;6.76;75.73;99318.03;6218961;23;20020;-80
2020/12/11 10:29:25;;;;;;;31.27;18.13;;;;;;;6.76;75.83;99307.50;6219974;23;20024;-79
2020/12/11 10:31:52;;;;;;;39.55;20.42;;;;;;;6.74;76.17;99304.09;6218599;23;20043;-79
2020/12/11 10:34:19;;;;;;;26.88;15.45;;;;;;;6.76;75.77;99307.50;6246839;23;20381;-80
2020/12/11 10:36:45;;;;;;;32.80;17.52;;;;;;;6.79;76.07;99296.78;6218770;23;20020;-79
2020/12/11 10:39:11;;;;;;;37.53;20.15;;;;;;;6.89;76.34;99291.03;6219827;23;20672;-80
2020/12/11 10:41:41;;;;;;;35.75;19.48;;;;;;;7.01;75.98;99285.09;6218866;23;20510;-80
2020/12/11 10:44:07;;;;;;;35.70;18.95;;;;;;;7.14;75.82;99286.13;6217881;23;20367;-79
2020/12/11 10:46:33;;;;;;;31.85;18.35;;;;;;;7.21;75.60;99281.34;6218145;23;20016;-80
2020/12/11 10:48:59;;;;;;;38.30;19.83;;;;;;;7.22;75.73;99283.91;6245369;23;20020;-80
2020/12/11 10:51:25;;;;;;;33.92;20.67;;;;;;;7.20;75.35;99288.41;6218186;23;20030;-80
2020/12/11 10:53:51;;;;;;;31.60;18.92;;;;;;;7.15;75.13;99279.91;6219495;23;20043;-80
2020/12/11 10:56:19;;;;;;;36.15;19.13;;;;;;;7.09;75.69;99269.72;6219246;23;20066;-79
2020/12/11 10:58:47;;;;;;;34.63;20.42;;;;;;;7.07;75.82;99270.75;6219390;23;20034;-80
2020/12/11 11:01:14;;;;;;;33.13;20.92;;;;;;;7.04;75.38;99279.66;6218613;23;20039;-80
2020/12/11 11:03:40;;;;;;;44.03;22.10;;;;;;;6.97;74.79;99278.31;6220066;23;20366;-81
2020/12/11 11:06:20;;;;;;;42.78;20.55;;;;;;;6.85;74.75;99271.09;6194422;23;20027;-80
2020/12/11 11:09:05;;;;;;;48.20;24.05;;;;;;;6.71;74.92;99267.44;6195756;23;20139;-81
2020/12/11 11:11:38;;;;;;;42.00;20.58;;;;;;;6.62;74.93;99257.41;6213876;23;20095;-80
2020/12/11 11:29:30;;;;;;;58.20;24.23;;;;;;;6.25;76.30;99243.59;6266238;22;20000;-82
2020/12/11 11:31:56;;;;;;;49.03;22.23;;;;;;;6.24;76.47;99236.66;6273142;23;20016;-81
2020/12/11 11:34:23;;;;;;;59.50;25.50;;;;;;;6.22;76.23;99228.00;6267820;22;20006;-82
2020/12/11 11:36:53;;;;;;;58.55;23.70;;;;;;;6.22;76.12;99228.00;6244631;23;20442;-82
2020/12/11 11:39:20;;;;;;;51.38;24.00;;;;;;;6.23;76.10;99224.44;6244663;23;20024;-82
2020/12/11 11:41:47;;;;;;;54.85;24.30;;;;;;;6.26;76.21;99213.75;6245043;23;20020;-82
2020/12/11 11:44:28;;;;;;;48.28;20.67;;;;;;;6.29;76.63;99208.34;6247167;22;20372;-80
2020/12/11 11:46:57;;;;;;;59.95;25.13;;;;;;;6.33;76.53;99204.63;6244348;23;20062;-80
2020/12/11 11:49:35;;;;;;;54.17;25.88;;;;;;;6.37;76.62;99206.13;6245213;23;20020;-80
2020/12/11 11:52:18;;;;;;;49.55;22.60;;;;;;;6.41;77.07;99199.78;6246361;22;20438;-80
2020/12/11 11:54:44;;;;;;;48.90;19.92;;;;;;;6.47;76.63;99192.50;6246396;23;20028;-81
2020/12/11 11:57:10;;;;;;;58.38;24.83;;;;;;;6.51;76.74;99181.72;6245609;23;20125;-79